sensor_id;sensor_type;location;lat;lon;timestamp;P1;durP1;ratioP1;P2;durP2;ratioP2
13951;SDS011;39535;52.192;9.886;2023-04-30T00:00:30;7.37;;;3.83;;
13951;SDS011;39535;52.192;9.886;2023-04-30T00:02:57;7.27;;;3.77;;
13951;SDS011;39535;52.192;9.886;2023-04-30T00:05:24;4.97;;;4.23;;
13951;SDS011;39535;52.192;9.886;2023-04-30T00:07:50;10.00;;;3.80;;
13951;SDS011;39535;52.192;9.886;2023-04-30T00:10:16;5.13;;;3.93;;
13951;SDS011;39535;52.192;9.886;2023-04-30T00:12:43;3.67;;;3.07;;
13951;SDS011;39535;52.192;9.886;2023-04-30T00:15:09;4.93;;;3.83;;
13951;SDS011;39535;52.192;9.886;2023-04-30T00:17:36;6.83;;;4.10;;
13951;SDS011;39535;52.192;9.886;2023-04-30T00:20:05;10.60;;;3.80;;
13951;SDS011;39535;52.192;9.886;2023-04-30T00:22:32;7.37;;;3.73;;
13951;SDS011;39535;52.192;9.886;2023-04-30T00:24:58;6.90;;;3.47;;
13951;SDS011;39535;52.192;9.886;2023-04-30T00:27:24;4.80;;;3.60;;
13951;SDS011;39535;52.192;9.886;2023-04-30T00:29:51;5.53;;;3.73;;
13951;SDS011;39535;52.192;9.886;2023-04-30T00:32:18;4.00;;;3.60;;
13951;SDS011;39535;52.192;9.886;2023-04-30T00:34:45;5.50;;;3.93;;
13951;SDS011;39535;52.192;9.886;2023-04-30T00:37:12;10.33;;;4.47;;
13951;SDS011;39535;52.192;9.886;2023-04-30T00:39:39;7.10;;;5.37;;
13951;SDS011;39535;52.192;9.886;2023-04-30T00:42:05;6.20;;;5.60;;
13951;SDS011;39535;52.192;9.886;2023-04-30T00:44:32;7.87;;;5.33;;
13951;SDS011;39535;52.192;9.886;2023-04-30T00:46:58;7.00;;;5.60;;
13951;SDS011;39535;52.192;9.886;2023-04-30T00:49:24;7.57;;;5.67;;
13951;SDS011;39535;52.192;9.886;2023-04-30T00:51:51;10.13;;;5.37;;
13951;SDS011;39535;52.192;9.886;2023-04-30T00:54:20;9.47;;;4.93;;
13951;SDS011;39535;52.192;9.886;2023-04-30T00:56:46;6.10;;;5.10;;
13951;SDS011;39535;52.192;9.886;2023-04-30T00:59:13;8.60;;;5.20;;
13951;SDS011;39535;52.192;9.886;2023-04-30T01:01:39;5.97;;;4.83;;
13951;SDS011;39535;52.192;9.886;2023-04-30T01:04:06;6.97;;;5.33;;
13951;SDS011;39535;52.192;9.886;2023-04-30T01:06:32;6.87;;;4.57;;
13951;SDS011;39535;52.192;9.886;2023-04-30T01:08:59;6.30;;;5.00;;
13951;SDS011;39535;52.192;9.886;2023-04-30T01:11:27;7.03;;;5.03;;
13951;SDS011;39535;52.192;9.886;2023-04-30T01:14:03;6.53;;;4.73;;
13951;SDS011;39535;52.192;9.886;2023-04-30T01:16:39;4.90;;;4.17;;
13951;SDS011;39535;52.192;9.886;2023-04-30T01:19:09;6.33;;;4.77;;
13951;SDS011;39535;52.192;9.886;2023-04-30T01:22:00;6.57;;;4.70;;
13951;SDS011;39535;52.192;9.886;2023-04-30T01:24:37;4.93;;;4.33;;
13951;SDS011;39535;52.192;9.886;2023-04-30T01:27:20;6.50;;;4.03;;
13951;SDS011;39535;52.192;9.886;2023-04-30T01:29:56;5.07;;;4.50;;
13951;SDS011;39535;52.192;9.886;2023-04-30T01:32:23;6.70;;;4.50;;
13951;SDS011;39535;52.192;9.886;2023-04-30T01:34:49;6.47;;;4.33;;
13951;SDS011;39535;52.192;9.886;2023-04-30T01:37:18;7.13;;;3.80;;
13951;SDS011;39535;52.192;9.886;2023-04-30T01:39:54;9.77;;;4.10;;
13951;SDS011;39535;52.192;9.886;2023-04-30T01:42:29;8.60;;;4.37;;
13951;SDS011;39535;52.192;9.886;2023-04-30T01:45:13;5.03;;;4.20;;
13951;SDS011;39535;52.192;9.886;2023-04-30T01:47:48;6.77;;;4.50;;
13951;SDS011;39535;52.192;9.886;2023-04-30T01:50:24;6.80;;;4.10;;
13951;SDS011;39535;52.192;9.886;2023-04-30T01:52:57;6.97;;;4.10;;
13951;SDS011;39535;52.192;9.886;2023-04-30T01:55:27;4.10;;;3.73;;
13951;SDS011;39535;52.192;9.886;2023-04-30T01:57:59;4.50;;;3.83;;
13951;SDS011;39535;52.192;9.886;2023-04-30T02:00:29;11.97;;;4.37;;
13951;SDS011;39535;52.192;9.886;2023-04-30T02:02:55;10.37;;;3.87;;
13951;SDS011;39535;52.192;9.886;2023-04-30T02:05:22;3.73;;;3.40;;
13951;SDS011;39535;52.192;9.886;2023-04-30T02:07:49;5.50;;;3.27;;
13951;SDS011;39535;52.192;9.886;2023-04-30T02:10:17;4.50;;;3.60;;
13951;SDS011;39535;52.192;9.886;2023-04-30T02:12:45;7.10;;;3.30;;
13951;SDS011;39535;52.192;9.886;2023-04-30T02:15:12;3.67;;;3.17;;
13951;SDS011;39535;52.192;9.886;2023-04-30T02:17:40;10.60;;;4.80;;
13951;SDS011;39535;52.192;9.886;2023-04-30T02:20:07;6.40;;;3.57;;
13951;SDS011;39535;52.192;9.886;2023-04-30T02:22:34;4.80;;;3.97;;
13951;SDS011;39535;52.192;9.886;2023-04-30T02:25:00;5.90;;;4.30;;
13951;SDS011;39535;52.192;9.886;2023-04-30T02:27:28;5.70;;;3.50;;
13951;SDS011;39535;52.192;9.886;2023-04-30T02:29:56;4.57;;;4.07;;
13951;SDS011;39535;52.192;9.886;2023-04-30T02:32:22;4.90;;;3.63;;
13951;SDS011;39535;52.192;9.886;2023-04-30T02:34:50;4.97;;;3.33;;
13951;SDS011;39535;52.192;9.886;2023-04-30T02:37:16;6.87;;;4.37;;
13951;SDS011;39535;52.192;9.886;2023-04-30T02:39:42;3.90;;;3.50;;
13951;SDS011;39535;52.192;9.886;2023-04-30T02:42:09;7.30;;;3.70;;
13951;SDS011;39535;52.192;9.886;2023-04-30T02:44:35;4.03;;;3.67;;
13951;SDS011;39535;52.192;9.886;2023-04-30T02:47:01;5.47;;;4.80;;
13951;SDS011;39535;52.192;9.886;2023-04-30T02:49:28;3.73;;;3.37;;
13951;SDS011;39535;52.192;9.886;2023-04-30T02:51:55;6.50;;;3.80;;
13951;SDS011;39535;52.192;9.886;2023-04-30T02:54:22;6.80;;;3.80;;
13951;SDS011;39535;52.192;9.886;2023-04-30T02:56:48;5.43;;;3.80;;
13951;SDS011;39535;52.192;9.886;2023-04-30T02:59:15;4.43;;;3.57;;
13951;SDS011;39535;52.192;9.886;2023-04-30T03:01:41;7.37;;;3.63;;
13951;SDS011;39535;52.192;9.886;2023-04-30T03:04:07;4.77;;;3.67;;
13951;SDS011;39535;52.192;9.886;2023-04-30T03:06:34;10.27;;;4.60;;
13951;SDS011;39535;52.192;9.886;2023-04-30T03:09:01;7.63;;;4.30;;
13951;SDS011;39535;52.192;9.886;2023-04-30T03:11:28;7.87;;;4.27;;
13951;SDS011;39535;52.192;9.886;2023-04-30T03:13:54;6.40;;;3.90;;
13951;SDS011;39535;52.192;9.886;2023-04-30T03:16:21;4.30;;;3.70;;
13951;SDS011;39535;52.192;9.886;2023-04-30T03:18:47;4.47;;;3.67;;
13951;SDS011;39535;52.192;9.886;2023-04-30T03:21:14;5.50;;;3.73;;
13951;SDS011;39535;52.192;9.886;2023-04-30T03:23:40;8.07;;;3.50;;
13951;SDS011;39535;52.192;9.886;2023-04-30T03:26:08;3.67;;;3.20;;
13951;SDS011;39535;52.192;9.886;2023-04-30T03:28:34;3.93;;;3.10;;
13951;SDS011;39535;52.192;9.886;2023-04-30T03:31:01;4.93;;;3.57;;
13951;SDS011;39535;52.192;9.886;2023-04-30T03:33:29;4.90;;;3.17;;
13951;SDS011;39535;52.192;9.886;2023-04-30T03:35:55;3.30;;;3.00;;
13951;SDS011;39535;52.192;9.886;2023-04-30T03:38:21;3.67;;;2.97;;
13951;SDS011;39535;52.192;9.886;2023-04-30T03:40:48;4.43;;;3.10;;
13951;SDS011;39535;52.192;9.886;2023-04-30T03:43:16;5.47;;;3.17;;
13951;SDS011;39535;52.192;9.886;2023-04-30T03:45:42;5.90;;;4.03;;
13951;SDS011;39535;52.192;9.886;2023-04-30T03:48:08;7.03;;;3.70;;
13951;SDS011;39535;52.192;9.886;2023-04-30T03:50:35;5.33;;;3.80;;
13951;SDS011;39535;52.192;9.886;2023-04-30T03:53:01;6.30;;;3.90;;
13951;SDS011;39535;52.192;9.886;2023-04-30T03:55:27;4.90;;;3.70;;
13951;SDS011;39535;52.192;9.886;2023-04-30T03:57:54;4.10;;;3.70;;
13951;SDS011;39535;52.192;9.886;2023-04-30T04:00:21;7.80;;;3.93;;
13951;SDS011;39535;52.192;9.886;2023-04-30T04:02:48;5.20;;;4.10;;
13951;SDS011;39535;52.192;9.886;2023-04-30T04:05:14;5.53;;;3.57;;
13951;SDS011;39535;52.192;9.886;2023-04-30T04:07:41;5.70;;;3.97;;
13951;SDS011;39535;52.192;9.886;2023-04-30T04:10:07;7.07;;;3.67;;
13951;SDS011;39535;52.192;9.886;2023-04-30T04:12:34;4.83;;;3.67;;
13951;SDS011;39535;52.192;9.886;2023-04-30T04:15:00;4.40;;;4.00;;
13951;SDS011;39535;52.192;9.886;2023-04-30T04:17:28;4.60;;;4.03;;
13951;SDS011;39535;52.192;9.886;2023-04-30T04:19:54;4.80;;;4.30;;
13951;SDS011;39535;52.192;9.886;2023-04-30T04:22:21;10.13;;;4.40;;
13951;SDS011;39535;52.192;9.886;2023-04-30T04:24:47;7.20;;;4.17;;
13951;SDS011;39535;52.192;9.886;2023-04-30T04:27:13;8.23;;;4.97;;
13951;SDS011;39535;52.192;9.886;2023-04-30T04:29:40;5.40;;;4.70;;
13951;SDS011;39535;52.192;9.886;2023-04-30T04:32:06;4.77;;;4.20;;
13951;SDS011;39535;52.192;9.886;2023-04-30T04:34:35;6.37;;;4.13;;
13951;SDS011;39535;52.192;9.886;2023-04-30T04:37:02;4.43;;;3.63;;
13951;SDS011;39535;52.192;9.886;2023-04-30T04:39:29;5.47;;;4.17;;
13951;SDS011;39535;52.192;9.886;2023-04-30T04:41:55;7.23;;;4.27;;
13951;SDS011;39535;52.192;9.886;2023-04-30T04:44:22;7.63;;;4.53;;
13951;SDS011;39535;52.192;9.886;2023-04-30T04:46:48;5.87;;;3.70;;
13951;SDS011;39535;52.192;9.886;2023-04-30T04:49:17;4.90;;;4.00;;
13951;SDS011;39535;52.192;9.886;2023-04-30T04:51:45;4.40;;;3.93;;
13951;SDS011;39535;52.192;9.886;2023-04-30T04:54:11;6.87;;;4.00;;
13951;SDS011;39535;52.192;9.886;2023-04-30T04:56:38;4.23;;;3.83;;
13951;SDS011;39535;52.192;9.886;2023-04-30T04:59:04;4.43;;;4.03;;
13951;SDS011;39535;52.192;9.886;2023-04-30T05:01:32;5.87;;;4.10;;
13951;SDS011;39535;52.192;9.886;2023-04-30T05:03:58;5.87;;;4.30;;
13951;SDS011;39535;52.192;9.886;2023-04-30T05:06:24;4.67;;;4.10;;
13951;SDS011;39535;52.192;9.886;2023-04-30T05:08:52;6.13;;;4.23;;
13951;SDS011;39535;52.192;9.886;2023-04-30T05:11:18;5.90;;;4.00;;
13951;SDS011;39535;52.192;9.886;2023-04-30T05:13:45;9.23;;;4.00;;
13951;SDS011;39535;52.192;9.886;2023-04-30T05:16:12;9.53;;;4.37;;
13951;SDS011;39535;52.192;9.886;2023-04-30T05:18:38;8.07;;;3.80;;
13951;SDS011;39535;52.192;9.886;2023-04-30T05:21:05;4.17;;;3.73;;
13951;SDS011;39535;52.192;9.886;2023-04-30T05:23:31;6.00;;;3.73;;
13951;SDS011;39535;52.192;9.886;2023-04-30T05:25:58;5.67;;;3.80;;
13951;SDS011;39535;52.192;9.886;2023-04-30T05:28:25;7.53;;;3.50;;
13951;SDS011;39535;52.192;9.886;2023-04-30T05:30:51;7.07;;;4.63;;
13951;SDS011;39535;52.192;9.886;2023-04-30T05:33:17;7.50;;;3.60;;
13951;SDS011;39535;52.192;9.886;2023-04-30T05:35:44;5.13;;;3.80;;
13951;SDS011;39535;52.192;9.886;2023-04-30T05:38:10;5.13;;;4.13;;
13951;SDS011;39535;52.192;9.886;2023-04-30T05:40:36;5.90;;;4.27;;
13951;SDS011;39535;52.192;9.886;2023-04-30T05:43:04;7.13;;;3.53;;
13951;SDS011;39535;52.192;9.886;2023-04-30T05:45:30;5.13;;;3.63;;
13951;SDS011;39535;52.192;9.886;2023-04-30T05:47:57;7.17;;;3.60;;
13951;SDS011;39535;52.192;9.886;2023-04-30T05:50:23;11.47;;;3.50;;
13951;SDS011;39535;52.192;9.886;2023-04-30T05:52:49;5.37;;;3.77;;
13951;SDS011;39535;52.192;9.886;2023-04-30T05:55:16;8.47;;;4.23;;
13951;SDS011;39535;52.192;9.886;2023-04-30T05:57:42;5.20;;;3.93;;
13951;SDS011;39535;52.192;9.886;2023-04-30T06:00:10;4.37;;;3.77;;
13951;SDS011;39535;52.192;9.886;2023-04-30T06:02:38;7.57;;;4.00;;
13951;SDS011;39535;52.192;9.886;2023-04-30T06:05:05;7.50;;;4.43;;
13951;SDS011;39535;52.192;9.886;2023-04-30T06:07:33;5.00;;;3.07;;
13951;SDS011;39535;52.192;9.886;2023-04-30T06:09:59;5.27;;;3.40;;
13951;SDS011;39535;52.192;9.886;2023-04-30T06:12:25;7.27;;;3.50;;
13951;SDS011;39535;52.192;9.886;2023-04-30T06:14:52;4.70;;;3.53;;
13951;SDS011;39535;52.192;9.886;2023-04-30T06:17:19;6.77;;;3.67;;
13951;SDS011;39535;52.192;9.886;2023-04-30T06:19:46;5.87;;;3.77;;
13951;SDS011;39535;52.192;9.886;2023-04-30T06:22:12;7.47;;;4.30;;
13951;SDS011;39535;52.192;9.886;2023-04-30T06:24:38;8.40;;;3.53;;
13951;SDS011;39535;52.192;9.886;2023-04-30T06:27:05;6.43;;;3.70;;
13951;SDS011;39535;52.192;9.886;2023-04-30T06:29:31;5.83;;;3.27;;
13951;SDS011;39535;52.192;9.886;2023-04-30T06:31:57;5.03;;;3.80;;
13951;SDS011;39535;52.192;9.886;2023-04-30T06:34:25;5.23;;;3.40;;
13951;SDS011;39535;52.192;9.886;2023-04-30T06:36:51;4.70;;;2.73;;
13951;SDS011;39535;52.192;9.886;2023-04-30T06:39:18;3.87;;;2.53;;
13951;SDS011;39535;52.192;9.886;2023-04-30T06:41:44;6.20;;;2.90;;
13951;SDS011;39535;52.192;9.886;2023-04-30T06:44:11;4.03;;;3.10;;
13951;SDS011;39535;52.192;9.886;2023-04-30T06:46:37;6.73;;;3.20;;
13951;SDS011;39535;52.192;9.886;2023-04-30T06:49:04;5.60;;;2.80;;
13951;SDS011;39535;52.192;9.886;2023-04-30T06:51:31;3.77;;;2.53;;
13951;SDS011;39535;52.192;9.886;2023-04-30T06:53:58;5.47;;;2.87;;
13951;SDS011;39535;52.192;9.886;2023-04-30T06:56:24;5.03;;;2.73;;
13951;SDS011;39535;52.192;9.886;2023-04-30T06:58:51;10.20;;;3.60;;
13951;SDS011;39535;52.192;9.886;2023-04-30T07:01:17;4.00;;;2.80;;
13951;SDS011;39535;52.192;9.886;2023-04-30T07:03:43;4.47;;;2.67;;
13951;SDS011;39535;52.192;9.886;2023-04-30T07:06:10;4.70;;;2.93;;
13951;SDS011;39535;52.192;9.886;2023-04-30T07:08:37;7.03;;;3.40;;
13951;SDS011;39535;52.192;9.886;2023-04-30T07:11:05;7.43;;;3.07;;
13951;SDS011;39535;52.192;9.886;2023-04-30T07:13:31;4.40;;;2.83;;
13951;SDS011;39535;52.192;9.886;2023-04-30T07:15:57;5.03;;;2.70;;
13951;SDS011;39535;52.192;9.886;2023-04-30T07:18:24;5.77;;;2.87;;
13951;SDS011;39535;52.192;9.886;2023-04-30T07:20:50;7.20;;;3.33;;
13951;SDS011;39535;52.192;9.886;2023-04-30T07:23:16;5.50;;;3.67;;
13951;SDS011;39535;52.192;9.886;2023-04-30T07:25:44;5.43;;;2.90;;
13951;SDS011;39535;52.192;9.886;2023-04-30T07:28:10;5.93;;;2.80;;
13951;SDS011;39535;52.192;9.886;2023-04-30T07:30:37;7.93;;;3.30;;
13951;SDS011;39535;52.192;9.886;2023-04-30T07:33:03;6.17;;;2.77;;
13951;SDS011;39535;52.192;9.886;2023-04-30T07:35:31;6.80;;;2.83;;
13951;SDS011;39535;52.192;9.886;2023-04-30T07:37:58;7.63;;;3.00;;
13951;SDS011;39535;52.192;9.886;2023-04-30T07:40:24;5.03;;;2.73;;
13951;SDS011;39535;52.192;9.886;2023-04-30T07:42:51;6.80;;;2.37;;
13951;SDS011;39535;52.192;9.886;2023-04-30T07:45:19;4.17;;;2.93;;
13951;SDS011;39535;52.192;9.886;2023-04-30T07:47:45;7.07;;;3.27;;
13951;SDS011;39535;52.192;9.886;2023-04-30T07:50:12;5.77;;;3.03;;
13951;SDS011;39535;52.192;9.886;2023-04-30T07:52:40;5.07;;;2.73;;
13951;SDS011;39535;52.192;9.886;2023-04-30T07:55:07;5.63;;;3.00;;
13951;SDS011;39535;52.192;9.886;2023-04-30T07:57:34;5.37;;;3.17;;
13951;SDS011;39535;52.192;9.886;2023-04-30T08:00:02;4.90;;;2.43;;
13951;SDS011;39535;52.192;9.886;2023-04-30T08:02:28;4.40;;;2.80;;
13951;SDS011;39535;52.192;9.886;2023-04-30T08:04:55;5.93;;;2.77;;
13951;SDS011;39535;52.192;9.886;2023-04-30T08:07:21;4.03;;;2.80;;
13951;SDS011;39535;52.192;9.886;2023-04-30T08:09:49;6.80;;;2.97;;
13951;SDS011;39535;52.192;9.886;2023-04-30T08:12:15;5.37;;;3.87;;
13951;SDS011;39535;52.192;9.886;2023-04-30T08:14:42;6.87;;;3.10;;
13951;SDS011;39535;52.192;9.886;2023-04-30T08:17:10;6.23;;;3.20;;
13951;SDS011;39535;52.192;9.886;2023-04-30T08:19:36;5.87;;;2.77;;
13951;SDS011;39535;52.192;9.886;2023-04-30T08:22:02;6.13;;;2.53;;
13951;SDS011;39535;52.192;9.886;2023-04-30T08:24:29;4.37;;;2.90;;
13951;SDS011;39535;52.192;9.886;2023-04-30T08:26:55;4.70;;;3.37;;
13951;SDS011;39535;52.192;9.886;2023-04-30T08:29:21;5.93;;;2.90;;
13951;SDS011;39535;52.192;9.886;2023-04-30T08:31:48;7.20;;;3.87;;
13951;SDS011;39535;52.192;9.886;2023-04-30T08:34:15;6.00;;;3.47;;
13951;SDS011;39535;52.192;9.886;2023-04-30T08:36:42;4.87;;;3.17;;
13951;SDS011;39535;52.192;9.886;2023-04-30T08:39:08;5.67;;;2.53;;
13951;SDS011;39535;52.192;9.886;2023-04-30T08:41:34;5.63;;;3.13;;
13951;SDS011;39535;52.192;9.886;2023-04-30T08:44:03;6.10;;;3.00;;
13951;SDS011;39535;52.192;9.886;2023-04-30T08:46:30;6.87;;;3.17;;
13951;SDS011;39535;52.192;9.886;2023-04-30T08:48:59;7.03;;;3.40;;
13951;SDS011;39535;52.192;9.886;2023-04-30T08:51:28;6.70;;;3.37;;
13951;SDS011;39535;52.192;9.886;2023-04-30T08:53:56;5.33;;;3.37;;
13951;SDS011;39535;52.192;9.886;2023-04-30T08:56:22;4.33;;;2.90;;
13951;SDS011;39535;52.192;9.886;2023-04-30T08:58:49;7.93;;;2.90;;
13951;SDS011;39535;52.192;9.886;2023-04-30T09:01:15;5.13;;;3.30;;
13951;SDS011;39535;52.192;9.886;2023-04-30T09:03:42;4.60;;;2.87;;
13951;SDS011;39535;52.192;9.886;2023-04-30T09:06:08;5.27;;;3.23;;
13951;SDS011;39535;52.192;9.886;2023-04-30T09:08:42;5.10;;;2.73;;
13951;SDS011;39535;52.192;9.886;2023-04-30T09:11:20;6.43;;;3.20;;
13951;SDS011;39535;52.192;9.886;2023-04-30T09:13:49;5.87;;;3.63;;
13951;SDS011;39535;52.192;9.886;2023-04-30T09:16:17;6.37;;;3.37;;
13951;SDS011;39535;52.192;9.886;2023-04-30T09:18:44;5.70;;;3.47;;
13951;SDS011;39535;52.192;9.886;2023-04-30T09:21:11;6.13;;;3.30;;
13951;SDS011;39535;52.192;9.886;2023-04-30T09:23:44;5.00;;;3.30;;
13951;SDS011;39535;52.192;9.886;2023-04-30T09:26:20;6.00;;;3.10;;
13951;SDS011;39535;52.192;9.886;2023-04-30T09:28:53;7.73;;;2.83;;
13951;SDS011;39535;52.192;9.886;2023-04-30T09:31:20;7.10;;;3.10;;
13951;SDS011;39535;52.192;9.886;2023-04-30T09:33:46;4.40;;;2.50;;
13951;SDS011;39535;52.192;9.886;2023-04-30T09:36:12;4.60;;;2.70;;
13951;SDS011;39535;52.192;9.886;2023-04-30T09:38:39;5.50;;;2.97;;
13951;SDS011;39535;52.192;9.886;2023-04-30T09:41:07;4.63;;;3.40;;
13951;SDS011;39535;52.192;9.886;2023-04-30T09:43:47;6.40;;;3.10;;
13951;SDS011;39535;52.192;9.886;2023-04-30T09:46:13;6.57;;;2.83;;
13951;SDS011;39535;52.192;9.886;2023-04-30T09:48:40;4.50;;;2.90;;
13951;SDS011;39535;52.192;9.886;2023-04-30T09:51:06;4.87;;;2.63;;
13951;SDS011;39535;52.192;9.886;2023-04-30T09:53:34;4.43;;;2.70;;
13951;SDS011;39535;52.192;9.886;2023-04-30T09:56:03;6.97;;;3.10;;
13951;SDS011;39535;52.192;9.886;2023-04-30T09:58:35;4.50;;;2.80;;
13951;SDS011;39535;52.192;9.886;2023-04-30T10:01:02;6.70;;;2.60;;
13951;SDS011;39535;52.192;9.886;2023-04-30T10:03:31;7.07;;;2.63;;
13951;SDS011;39535;52.192;9.886;2023-04-30T10:05:58;5.67;;;2.50;;
13951;SDS011;39535;52.192;9.886;2023-04-30T10:08:26;5.93;;;2.50;;
13951;SDS011;39535;52.192;9.886;2023-04-30T10:10:55;4.50;;;3.13;;
13951;SDS011;39535;52.192;9.886;2023-04-30T10:13:26;8.27;;;2.90;;
13951;SDS011;39535;52.192;9.886;2023-04-30T10:15:57;4.97;;;2.83;;
13951;SDS011;39535;52.192;9.886;2023-04-30T10:18:27;4.83;;;2.97;;
13951;SDS011;39535;52.192;9.886;2023-04-30T10:20:56;5.00;;;2.53;;
13951;SDS011;39535;52.192;9.886;2023-04-30T10:23:26;7.40;;;2.80;;
13951;SDS011;39535;52.192;9.886;2023-04-30T10:25:54;4.70;;;2.50;;
13951;SDS011;39535;52.192;9.886;2023-04-30T10:28:22;3.30;;;2.40;;
13951;SDS011;39535;52.192;9.886;2023-04-30T10:30:52;4.83;;;2.23;;
13951;SDS011;39535;52.192;9.886;2023-04-30T10:33:22;6.23;;;3.33;;
13951;SDS011;39535;52.192;9.886;2023-04-30T10:35:55;4.17;;;2.63;;
13951;SDS011;39535;52.192;9.886;2023-04-30T10:38:26;3.00;;;2.53;;
13951;SDS011;39535;52.192;9.886;2023-04-30T10:40:54;4.07;;;2.33;;
13951;SDS011;39535;52.192;9.886;2023-04-30T10:43:22;4.43;;;2.47;;
13951;SDS011;39535;52.192;9.886;2023-04-30T10:45:49;3.50;;;2.10;;
13951;SDS011;39535;52.192;9.886;2023-04-30T10:48:17;4.77;;;2.60;;
13951;SDS011;39535;52.192;9.886;2023-04-30T10:50:50;4.23;;;2.60;;
13951;SDS011;39535;52.192;9.886;2023-04-30T10:53:18;5.33;;;3.10;;
13951;SDS011;39535;52.192;9.886;2023-04-30T10:55:47;5.87;;;2.60;;
13951;SDS011;39535;52.192;9.886;2023-04-30T10:58:23;5.57;;;2.70;;
13951;SDS011;39535;52.192;9.886;2023-04-30T11:00:58;4.13;;;2.40;;
13951;SDS011;39535;52.192;9.886;2023-04-30T11:03:28;6.53;;;2.67;;
13951;SDS011;39535;52.192;9.886;2023-04-30T11:05:55;3.33;;;2.50;;
13951;SDS011;39535;52.192;9.886;2023-04-30T11:08:30;7.33;;;2.30;;
13951;SDS011;39535;52.192;9.886;2023-04-30T11:10:58;4.07;;;2.20;;
13951;SDS011;39535;52.192;9.886;2023-04-30T11:13:26;4.50;;;2.20;;
13951;SDS011;39535;52.192;9.886;2023-04-30T11:15:53;4.63;;;3.00;;
13951;SDS011;39535;52.192;9.886;2023-04-30T11:18:19;5.30;;;2.30;;
13951;SDS011;39535;52.192;9.886;2023-04-30T11:20:49;6.67;;;2.20;;
13951;SDS011;39535;52.192;9.886;2023-04-30T11:23:16;4.73;;;3.00;;
13951;SDS011;39535;52.192;9.886;2023-04-30T11:25:48;2.53;;;2.20;;
13951;SDS011;39535;52.192;9.886;2023-04-30T11:28:15;5.30;;;2.20;;
13951;SDS011;39535;52.192;9.886;2023-04-30T11:30:49;5.13;;;3.27;;
13951;SDS011;39535;52.192;9.886;2023-04-30T11:33:17;3.67;;;2.33;;
13951;SDS011;39535;52.192;9.886;2023-04-30T11:35:43;2.53;;;1.93;;
13951;SDS011;39535;52.192;9.886;2023-04-30T11:38:12;4.53;;;2.50;;
13951;SDS011;39535;52.192;9.886;2023-04-30T11:40:40;2.50;;;2.00;;
13951;SDS011;39535;52.192;9.886;2023-04-30T11:43:06;6.03;;;2.73;;
13951;SDS011;39535;52.192;9.886;2023-04-30T11:45:33;4.03;;;2.37;;
13951;SDS011;39535;52.192;9.886;2023-04-30T11:47:59;2.40;;;1.87;;
13951;SDS011;39535;52.192;9.886;2023-04-30T11:50:27;3.20;;;2.33;;
13951;SDS011;39535;52.192;9.886;2023-04-30T11:52:58;3.27;;;2.27;;
13951;SDS011;39535;52.192;9.886;2023-04-30T11:55:27;3.57;;;2.53;;
13951;SDS011;39535;52.192;9.886;2023-04-30T11:57:54;4.27;;;2.77;;
13951;SDS011;39535;52.192;9.886;2023-04-30T12:00:25;4.23;;;2.63;;
13951;SDS011;39535;52.192;9.886;2023-04-30T12:02:52;3.93;;;2.30;;
13951;SDS011;39535;52.192;9.886;2023-04-30T12:05:20;2.60;;;2.00;;
13951;SDS011;39535;52.192;9.886;2023-04-30T12:07:48;3.10;;;2.70;;
13951;SDS011;39535;52.192;9.886;2023-04-30T12:10:17;3.80;;;2.60;;
13951;SDS011;39535;52.192;9.886;2023-04-30T12:12:46;4.03;;;2.93;;
13951;SDS011;39535;52.192;9.886;2023-04-30T12:15:14;3.37;;;2.47;;
13951;SDS011;39535;52.192;9.886;2023-04-30T12:17:41;3.60;;;3.30;;
13951;SDS011;39535;52.192;9.886;2023-04-30T12:20:10;4.70;;;3.03;;
13951;SDS011;39535;52.192;9.886;2023-04-30T12:22:38;3.37;;;2.93;;
13951;SDS011;39535;52.192;9.886;2023-04-30T12:25:06;5.00;;;2.90;;
13951;SDS011;39535;52.192;9.886;2023-04-30T12:27:34;4.77;;;2.43;;
13951;SDS011;39535;52.192;9.886;2023-04-30T12:30:04;3.33;;;2.33;;
13951;SDS011;39535;52.192;9.886;2023-04-30T12:32:38;3.17;;;2.37;;
13951;SDS011;39535;52.192;9.886;2023-04-30T12:35:07;4.33;;;2.60;;
13951;SDS011;39535;52.192;9.886;2023-04-30T12:37:40;3.40;;;2.27;;
13951;SDS011;39535;52.192;9.886;2023-04-30T12:40:08;3.10;;;2.60;;
13951;SDS011;39535;52.192;9.886;2023-04-30T12:42:35;4.33;;;2.57;;
13951;SDS011;39535;52.192;9.886;2023-04-30T12:45:07;4.30;;;2.17;;
13951;SDS011;39535;52.192;9.886;2023-04-30T12:47:37;4.27;;;2.10;;
13951;SDS011;39535;52.192;9.886;2023-04-30T12:50:07;4.80;;;2.90;;
13951;SDS011;39535;52.192;9.886;2023-04-30T12:52:40;3.80;;;2.37;;
13951;SDS011;39535;52.192;9.886;2023-04-30T12:55:14;3.90;;;2.13;;
13951;SDS011;39535;52.192;9.886;2023-04-30T13:00:52;3.47;;;3.03;;
13951;SDS011;39535;52.192;9.886;2023-04-30T13:03:23;3.00;;;2.00;;
13951;SDS011;39535;52.192;9.886;2023-04-30T13:05:50;4.87;;;2.33;;
13951;SDS011;39535;52.192;9.886;2023-04-30T13:08:18;3.37;;;3.07;;
13951;SDS011;39535;52.192;9.886;2023-04-30T13:10:45;4.70;;;2.50;;
13951;SDS011;39535;52.192;9.886;2023-04-30T13:13:12;3.23;;;2.23;;
13951;SDS011;39535;52.192;9.886;2023-04-30T13:15:40;2.37;;;1.77;;
13951;SDS011;39535;52.192;9.886;2023-04-30T13:18:08;4.33;;;2.00;;
13951;SDS011;39535;52.192;9.886;2023-04-30T13:20:36;4.50;;;2.47;;
13951;SDS011;39535;52.192;9.886;2023-04-30T13:23:04;3.97;;;2.17;;
13951;SDS011;39535;52.192;9.886;2023-04-30T13:25:31;4.87;;;2.47;;
13951;SDS011;39535;52.192;9.886;2023-04-30T13:27:58;4.33;;;2.40;;
13951;SDS011;39535;52.192;9.886;2023-04-30T13:30:24;3.83;;;2.20;;
13951;SDS011;39535;52.192;9.886;2023-04-30T13:32:51;3.43;;;2.07;;
13951;SDS011;39535;52.192;9.886;2023-04-30T13:35:20;4.20;;;2.17;;
13951;SDS011;39535;52.192;9.886;2023-04-30T13:37:47;3.30;;;2.67;;
13951;SDS011;39535;52.192;9.886;2023-04-30T13:40:16;5.30;;;2.53;;
13951;SDS011;39535;52.192;9.886;2023-04-30T13:42:44;3.60;;;2.33;;
13951;SDS011;39535;52.192;9.886;2023-04-30T13:45:11;2.30;;;1.93;;
13951;SDS011;39535;52.192;9.886;2023-04-30T13:47:37;5.73;;;2.50;;
13951;SDS011;39535;52.192;9.886;2023-04-30T13:50:05;3.53;;;2.30;;
13951;SDS011;39535;52.192;9.886;2023-04-30T13:52:34;4.93;;;2.70;;
13951;SDS011;39535;52.192;9.886;2023-04-30T13:55:00;3.50;;;2.33;;
13951;SDS011;39535;52.192;9.886;2023-04-30T13:57:29;3.73;;;2.10;;
13951;SDS011;39535;52.192;9.886;2023-04-30T13:59:57;3.53;;;2.40;;
13951;SDS011;39535;52.192;9.886;2023-04-30T14:02:24;3.63;;;2.23;;
13951;SDS011;39535;52.192;9.886;2023-04-30T14:04:51;4.00;;;2.00;;
13951;SDS011;39535;52.192;9.886;2023-04-30T14:07:17;3.43;;;2.07;;
13951;SDS011;39535;52.192;9.886;2023-04-30T14:09:45;5.10;;;2.07;;
13951;SDS011;39535;52.192;9.886;2023-04-30T14:12:11;3.50;;;2.53;;
13951;SDS011;39535;52.192;9.886;2023-04-30T14:14:38;3.60;;;2.13;;
13951;SDS011;39535;52.192;9.886;2023-04-30T14:17:04;4.37;;;2.90;;
13951;SDS011;39535;52.192;9.886;2023-04-30T14:19:31;3.30;;;2.10;;
13951;SDS011;39535;52.192;9.886;2023-04-30T14:21:59;3.30;;;2.50;;
13951;SDS011;39535;52.192;9.886;2023-04-30T14:24:28;3.43;;;2.17;;
13951;SDS011;39535;52.192;9.886;2023-04-30T14:26:57;3.80;;;2.17;;
13951;SDS011;39535;52.192;9.886;2023-04-30T14:29:27;4.50;;;3.00;;
13951;SDS011;39535;52.192;9.886;2023-04-30T14:31:56;4.97;;;2.20;;
13951;SDS011;39535;52.192;9.886;2023-04-30T14:34:23;4.90;;;2.40;;
13951;SDS011;39535;52.192;9.886;2023-04-30T14:36:51;6.07;;;2.57;;
13951;SDS011;39535;52.192;9.886;2023-04-30T14:39:28;3.83;;;2.20;;
13951;SDS011;39535;52.192;9.886;2023-04-30T14:41:55;4.40;;;2.43;;
13951;SDS011;39535;52.192;9.886;2023-04-30T14:44:23;4.37;;;2.20;;
13951;SDS011;39535;52.192;9.886;2023-04-30T14:46:50;5.80;;;2.60;;
13951;SDS011;39535;52.192;9.886;2023-04-30T14:49:16;3.70;;;2.33;;
13951;SDS011;39535;52.192;9.886;2023-04-30T14:51:44;3.00;;;2.43;;
13951;SDS011;39535;52.192;9.886;2023-04-30T14:54:10;3.90;;;2.63;;